Flight Track Log - Related Links

Times and Time Zones

All times are in EDT time to prevent confusion due to time zone crossing. See the DAL1671 flight status page for this flight to view local times or setup timezone preferences in your user account.

Time Position Orientation Groundspeed Altitude Reporting Facility
EDT Latitude Longitude Course Direction KTS MPH feet Rate Location/Type
Fri 12:36:28 PM 25.7983 -80.2675 61° Northeast 160 184 900  Level Miami Center
Fri 12:37:41 PM 25.8061 -80.1986 83° East 233 268 2,900 1,862 Climbing Miami Center
Fri 12:38:53 PM 25.8228 -80.1136 78° East 265 305 5,400 2,409 Climbing Miami Center
Fri 12:39:00 PM 25.8785 -79.9277 55° Northeast  Level FlightAware Approximate
Fri 12:39:53 PM 25.8517 -80.0336 68° East 271 312 8,200  Level Miami Center
Fri 12:40:00 PM 25.9478 -79.8231 52° Northeast  Level FlightAware Approximate
Fri 12:40:53 PM 25.8992 -79.9586 55° Northeast 282 325 10,500  Level Miami Center
Fri 12:41:00 PM 26.0160 -79.7179 61° Northeast  Level FlightAware Approximate
Fri 12:41:53 PM 25.9533 -79.8678 56° Northeast 311 358 11,500  Level Miami Center
Fri 12:42:53 PM 26.0097 -79.7650 59° Northeast 353 406 13,900 2,300 Climbing Miami Center
Fri 12:43:53 PM 26.0783 -79.6694 51° Northeast 377 434 16,100 2,000 Climbing Miami Center
Fri 12:44:53 PM 26.1819 -79.6094 27° Northeast 391 450 17,900 1,900 Climbing Miami Center
Fri 12:45:53 PM 26.2919 -79.5333 32° Northeast 406 467 19,900 1,550 Climbing Miami Center
Fri 12:46:53 PM 26.3975 -79.4661 30° Northeast 425 489 21,000 1,200 Climbing Miami Center
Fri 12:47:53 PM 26.5053 -79.3942 31° Northeast 447 514 22,300 1,650 Climbing Miami Center
Fri 12:48:53 PM 26.6153 -79.3222 30° Northeast 453 521 24,300 1,500 Climbing Miami Center
Fri 12:49:53 PM 26.7292 -79.2500 30° Northeast 453 521 25,300 1,100 Climbing Miami Center
Fri 12:50:53 PM 26.8392 -79.1756 31° Northeast 458 527 26,500 1,800 Climbing Miami Center
Fri 12:51:53 PM 26.9486 -79.1078 29° Northeast 458 527 28,900 1,600 Climbing Miami Center
Fri 12:52:53 PM 27.0664 -79.0681 17° North 434 499 29,700 900 Climbing Miami Center
Fri 12:53:53 PM 27.1772 -79.0467 10° North 436 502 30,700 1,100 Climbing Miami Center
Fri 12:54:53 PM 27.3114 -79.0167 11° North 442 509 31,900 700 Climbing Miami Center
Fri 12:55:53 PM 27.4414 -78.9908 10° North 456 525 32,100 550 Climbing Miami Center
Fri 12:56:53 PM 27.5692 -78.9653 10° North 461 531 33,000 450 Climbing Miami Center
Fri 12:57:53 PM 27.6842 -78.9414 10° North 467 537 33,000  Level Miami Center
Fri 12:58:53 PM 27.8142 -78.9156 10° North 467 537 33,000  Level Miami Center
Fri 12:59:53 PM 27.9503 -78.8828 12° North 461 531 33,000 450 Level Miami Center
Fri 01:00:53 PM 28.0758 -78.8569 10° North 461 531 33,900 950 Climbing Miami Center
Fri 01:01:53 PM 28.1994 -78.8308 11° North 461 531 34,900 550 Climbing Miami Center
Fri 01:02:53 PM 28.3272 -78.8047 10° North 456 525 35,000 50 Climbing Miami Center
Fri 01:03:53 PM 28.4547 -78.7786 10° North 450 518 35,000  Level Miami Center
Fri 01:04:53 PM 28.5761 -78.7522 11° North 445 512 35,000  Level Miami Center
Fri 01:05:53 PM 28.7017 -78.7261 10° North 451 519 35,000  Level Miami Center
Fri 01:06:53 PM 28.8211 -78.6950 13° North 445 512 35,000  Level Miami Center
Fri 01:07:53 PM 28.9550 -78.6711 North 451 519 35,000 -38 Level Miami Center
Fri 01:09:31 PM 29.1600 -78.6269 11° North 458 527 34,900 -38 Descending Jacksonville Center
Fri 01:10:31 PM 29.2611 -78.5964 15° North 439 505 34,900  Level Jacksonville Center
Fri 01:11:31 PM 29.3856 -78.5694 11° North 448 516 34,900  Level Jacksonville Center
Fri 01:12:31 PM 29.5097 -78.5403 12° North 453 521 34,900 50 Level Jacksonville Center
Fri 01:13:31 PM 29.6528 -78.5147 North 451 519 35,000 50 Climbing Jacksonville Center
Fri 01:14:31 PM 29.7794 -78.4922 North 455 524 35,000 150 Level Jacksonville Center
Fri 01:15:31 PM 29.9014 -78.4581 14° North 458 527 35,300 600 Climbing Jacksonville Center
Fri 01:16:31 PM 30.0342 -78.4375 North 470 541 36,200 750 Climbing Jacksonville Center
Fri 01:17:31 PM 30.1561 -78.4056 13° North 444 511 36,800 400 Climbing Jacksonville Center
Fri 01:18:31 PM 30.2597 -78.3839 10° North 442 509 37,000 50 Climbing Jacksonville Center
Fri 01:19:31 PM 30.3903 -78.3561 10° North 447 514 36,900  Descending Jacksonville Center
Fri 01:20:31 PM 30.5125 -78.3286 11° North 452 520 37,000 50 Climbing Jacksonville Center
Fri 01:21:31 PM 30.6328 -78.3036 10° North 446 513 37,000 -50 Level Jacksonville Center
Fri 01:22:31 PM 30.7547 -78.2758 11° North 446 513 36,900 -50 Descending Jacksonville Center
Fri 01:23:31 PM 30.8853 -78.2500 10° North 446 513 36,900  Level Jacksonville Center
Fri 01:24:31 PM 31.0033 -78.2250 10° North 446 513 36,900  Level Jacksonville Center
Fri 01:25:31 PM 31.1253 -78.1897 14° North 446 513 36,900  Level Jacksonville Center
Fri 01:26:31 PM 31.2517 -78.1639 10° North 446 513 36,900  Level Jacksonville Center
Fri 01:27:31 PM 31.3781 -78.1381 10° North 446 513 36,900 50 Level Jacksonville Center
Fri 01:28:31 PM 31.5044 -78.1144 North 446 513 37,000 50 Climbing Jacksonville Center
Fri 01:29:31 PM 31.6286 -78.0839 12° North 451 519 37,000 -50 Level Jacksonville Center
Fri 01:30:31 PM 31.7550 -78.0603 North 457 526 36,900  Descending Jacksonville Center
Fri 01:31:31 PM 31.8853 -78.0314 11° North 464 534 37,000  Climbing Jacksonville Center
Fri 01:32:31 PM 32.0092 -77.9953 14° North 464 534 36,900  Descending Jacksonville Center
Fri 01:33:31 PM 32.1306 -77.9472 19° North 464 534 37,000 50 Climbing Jacksonville Center
Fri 01:34:31 PM 32.2539 -77.9014 17° North 459 528 37,000 -50 Level Jacksonville Center
Fri 01:35:31 PM 32.3731 -77.8553 18° North 454 522 36,900 -50 Descending Jacksonville Center
Fri 01:36:31 PM 32.4964 -77.8067 18° North 454 522 36,900  Level Jacksonville Center
Fri 01:37:31 PM 32.6178 -77.7603 18° North 454 522 36,900 50 Level Jacksonville Center
Fri 01:38:31 PM 32.7408 -77.7114 18° North 454 522 37,000  Climbing Jacksonville Center
Fri 01:40:55 PM 33.0392 -77.5978 18° North 464 534 36,900 -29 Descending Washington Center
Fri 01:41:55 PM 33.1608 -77.5461 20° North 464 534 36,900 50 Level Washington Center
Fri 01:42:56 PM 33.2869 -77.4944 19° North 469 540 37,000 50 Climbing Washington Center
Fri 01:43:56 PM 33.4086 -77.4450 19° North 469 540 37,000  Level Washington Center
Fri 01:44:57 PM 33.5325 -77.3981 18° North 469 540 37,000  Level Washington Center
Fri 01:45:55 PM 33.6561 -77.3458 19° North 469 540 37,000 -50 Level Washington Center
Fri 01:46:56 PM 33.7822 -77.2958 18° North 469 540 36,900 -49 Descending Washington Center
Fri 01:47:57 PM 33.9058 -77.2458 19° North 464 534 36,900  Level Washington Center
Fri 01:48:57 PM 34.0422 -77.1883 19° North 469 540 36,900 50 Level Washington Center
Fri 01:49:57 PM 34.1661 -77.1406 18° North 463 533 37,000  Climbing Washington Center
Fri 01:50:55 PM 34.2875 -77.0903 19° North 463 533 36,900 -51 Descending Washington Center
Fri 01:51:55 PM 34.4114 -77.0394 19° North 468 539 36,900  Level Washington Center
Fri 01:52:56 PM 34.5331 -76.9886 19° North 468 539 36,900  Level Washington Center
Fri 01:53:56 PM 34.6567 -76.9403 18° North 468 539 36,900 50 Level Washington Center
Fri 01:54:57 PM 34.7803 -76.8867 20° North 468 539 37,000 50 Climbing Washington Center
Fri 01:55:56 PM 34.9019 -76.8381 18° North 468 539 37,000 -51 Level Washington Center
Fri 01:56:55 PM 35.0256 -76.7842 20° North 468 539 36,900  Descending Washington Center
Fri 01:57:56 PM 35.1344 -76.7375 19° North 471 542 37,000 49 Climbing Washington Center
Fri 01:58:57 PM 35.2600 -76.6858 19° North 466 536 37,000 -50 Level Washington Center
Fri 01:59:55 PM 35.3919 -76.6292 19° North 466 536 36,900 -51 Descending Washington Center
Fri 02:00:55 PM 35.5156 -76.5769 19° North 466 536 36,900 50 Level Washington Center
Fri 02:01:56 PM 35.6139 -76.5347 19° North 466 536 37,000 50 Climbing Washington Center
Fri 02:02:56 PM 35.7583 -76.4725 19° North 466 536 37,000 -50 Level Washington Center
Fri 02:03:57 PM 35.8819 -76.4253 17° North 461 531 36,900  Descending Washington Center
Fri 02:04:55 PM 36.0011 -76.3700 21° North 461 531 37,000  Climbing Washington Center
Fri 02:05:55 PM 36.1206 -76.3197 19° North 461 531 36,900 -49 Descending Washington Center
Fri 02:06:57 PM 36.2417 -76.2667 19° North 461 531 36,900  Level Washington Center
Fri 02:07:55 PM 36.3631 -76.2161 19° North 461 531 36,900 50 Level Washington Center
Fri 02:08:56 PM 36.4822 -76.1656 19° North 456 525 37,000 50 Climbing Washington Center
Fri 02:09:56 PM 36.6014 -76.1119 20° North 456 525 37,000  Level Washington Center
Fri 02:10:57 PM 36.6956 -76.0711 19° North 451 519 37,000  Level Washington Center
Fri 02:11:55 PM 36.8333 -76.0072 20° North 451 519 37,000  Level Washington Center
Fri 02:12:56 PM 36.9525 -75.9558 19° North 451 519 37,000 -49 Level Washington Center
Fri 02:13:57 PM 37.0819 -75.9042 18° North 465 535 36,900 -50 Descending Washington Center
Fri 02:14:57 PM 37.2008 -75.8528 19° North 465 535 36,900  Level Washington Center
Fri 02:15:57 PM 37.3158 -75.8008 20° North 458 527 36,900  Level Washington Center
Fri 02:16:55 PM 37.4347 -75.7461 20° North 452 520 36,900  Level Washington Center
Fri 02:17:55 PM 37.5517 -75.6967 19° North 446 513 36,900  Level Washington Center
Fri 02:18:56 PM 37.6683 -75.6417 20° North 446 513 36,900  Level Washington Center
Fri 02:19:55 PM 37.7894 -75.5917 18° North 446 513 36,900  Level Washington Center
Fri 02:20:56 PM 37.9061 -75.5261 24° Northeast 446 513 36,900 50 Level Washington Center
Fri 02:21:56 PM 38.0228 -75.4625 23° Northeast 457 526 37,000 50 Climbing Washington Center
Fri 02:22:57 PM 38.1394 -75.3858 27° Northeast 457 526 37,000  Level Washington Center
Fri 02:23:57 PM 38.2561 -75.3194 24° Northeast 457 526 37,000  Level Washington Center
Fri 02:24:55 PM 38.3706 -75.2447 27° Northeast 462 532 37,000 -50 Level Washington Center
Fri 02:25:56 PM 38.4872 -75.1753 25° Northeast 462 532 36,900  Descending Washington Center
Fri 02:26:57 PM 38.6017 -75.1003 27° Northeast 457 526 37,000  Climbing Washington Center
Fri 02:27:55 PM 38.7161 -75.0328 25° Northeast 457 526 36,900 -50 Descending Washington Center
Fri 02:28:56 PM 38.8303 -74.9628 26° Northeast 452 520 36,900 -347 Level Washington Center
Fri 02:29:56 PM 38.9444 -74.8925 26° Northeast 452 520 36,200 -1,587 Descending Washington Center
Fri 02:30:57 PM 39.0608 -74.8217 25° Northeast 452 520 33,700 -3,076 Descending Washington Center
Fri 02:31:55 PM 39.1664 -74.7269 35° Northeast 458 527 30,100 -3,019 Descending Washington Center
Fri 02:33:34 PM 39.3319 -74.5447 40° Northeast 473 544 25,800 -2,550 Descending New York Center
Fri 02:34:35 PM 39.4269 -74.4422 40° Northeast 448 516 23,300 -2,459 Descending New York Center
Fri 02:35:36 PM 39.5239 -74.3394 39° Northeast 443 510 20,800 -2,168 Descending New York Center
Fri 02:36:34 PM 39.6231 -74.2286 41° Northeast 443 510 19,000 -1,613 Descending New York Center
Fri 02:37:35 PM 39.7028 -74.1408 40° Northeast 421 484 17,600 -2,066 Descending New York Center
Fri 02:38:36 PM 39.7997 -74.0347 40° Northeast 411 473 14,800 -2,593 Descending New York Center
Fri 02:39:33 PM 39.8894 -73.9550 34° Northeast 405 466 12,500 -1,714 Descending New York Center
Fri 02:40:35 PM 39.9786 -73.8914 29° Northeast 380 437 11,400 -738 Descending New York Center
Fri 02:41:35 PM 40.0428 -73.8319 35° Northeast 336 387 11,000 -248 Descending New York Center
Fri 02:42:36 PM 40.1156 -73.7567 38° Northeast 311 358 10,900 -605 Descending New York Center
Fri 02:43:34 PM 40.1742 -73.7456 North 242 278 9,800 -1,361 Descending New York Center
Fri 02:44:35 PM 40.2378 -73.7864 334° Northwest 222 255 8,200 -1,488 Descending New York Center
Fri 02:45:35 PM 40.2692 -73.8583 300° West 219 252 6,800 -1,289 Descending New York Center
Fri 02:46:36 PM 40.3158 -73.9067 322° Northwest 219 252 5,600 -1,289 Descending New York Center
Fri 02:47:36 PM 40.3303 -73.9836 284° West 208 239 4,200 -1,271 Descending New York Center
Fri 02:48:34 PM 40.3811 -74.0297 325° Northwest 208 239 3,100 -605 Descending New York Center
Fri 02:49:35 PM 40.4439 -74.0244 North 212 244 3,000 -50 Descending New York Center
Fri 02:50:35 PM 40.4947 -73.9942 24° Northeast 199 229 3,000 -50 Level New York Center
Fri 02:51:36 PM 40.5397 -73.9525 35° Northeast 199 229 2,900 -98 Descending New York Center

Login

Don't have an account? Register now (free) for customized features, flight alerts, and more!